createdAt,value
2023-03-20T00:00:05.373Z,8.92
2023-03-20T00:02:36.688Z,8.94
2023-03-20T00:05:20.659Z,8.94
2023-03-20T00:07:51.314Z,8.93
2023-03-20T00:10:23.717Z,8.93
2023-03-20T00:12:57.949Z,8.95
2023-03-20T00:15:33.582Z,8.95
2023-03-20T00:18:03.133Z,8.95
2023-03-20T00:20:34.080Z,8.94
2023-03-20T00:23:04.748Z,8.94
2023-03-20T00:25:37.160Z,8.95
2023-03-20T00:28:40.806Z,8.95
2023-03-20T00:31:27.702Z,8.96
2023-03-20T00:34:01.257Z,8.96
2023-03-20T00:36:31.258Z,8.98
2023-03-20T00:39:00.830Z,8.98
2023-03-20T00:41:34.591Z,9.00
2023-03-20T00:44:21.124Z,9.00
2023-03-20T00:46:55.474Z,9.00
2023-03-20T00:49:30.522Z,9.01
2023-03-20T00:52:01.830Z,9.02
2023-03-20T00:54:31.277Z,9.04
2023-03-20T00:57:04.498Z,9.04
2023-03-20T00:59:40.479Z,9.05
2023-03-20T01:02:13.508Z,9.06
2023-03-20T01:04:43.789Z,9.07
2023-03-20T01:07:16.856Z,9.07
2023-03-20T01:09:46.527Z,9.08
2023-03-20T01:12:17.584Z,9.08
2023-03-20T01:14:56.541Z,9.08
2023-03-20T01:17:28.242Z,9.09
2023-03-20T01:19:57.268Z,9.07
2023-03-20T01:22:26.763Z,9.08
2023-03-20T01:24:56.818Z,9.10
2023-03-20T01:27:26.288Z,9.10
2023-03-20T01:29:56.641Z,9.12
2023-03-20T01:32:26.521Z,9.12
2023-03-20T01:34:55.250Z,9.11
2023-03-20T01:37:29.181Z,9.12
2023-03-20T01:39:58.642Z,9.13
2023-03-20T01:42:27.775Z,9.11
2023-03-20T01:44:58.623Z,9.13
2023-03-20T01:47:29.416Z,9.13
2023-03-20T01:50:47.203Z,9.14
2023-03-20T01:53:22.273Z,9.14
2023-03-20T01:55:55.816Z,9.14
2023-03-20T01:58:36.935Z,9.13
2023-03-20T02:01:14.266Z,9.12
2023-03-20T02:03:49.985Z,9.11
2023-03-20T02:06:22.840Z,9.12
2023-03-20T02:08:55.063Z,9.14
2023-03-20T02:11:27.817Z,9.13
2023-03-20T02:14:01.754Z,9.13
2023-03-20T02:16:32.201Z,9.12
2023-03-20T02:19:01.790Z,9.12
2023-03-20T02:22:43.802Z,9.13
2023-03-20T02:25:58.681Z,9.12
2023-03-20T02:29:26.662Z,9.13
2023-03-20T02:32:44.315Z,9.12
2023-03-20T02:36:24.198Z,9.15
2023-03-20T02:39:48.223Z,9.13
2023-03-20T02:42:33.978Z,9.13
2023-03-20T02:45:16.162Z,9.14
2023-03-20T02:47:58.077Z,9.14
2023-03-20T02:50:39.918Z,9.14
2023-03-20T02:53:32.725Z,9.12
2023-03-20T02:56:14.020Z,9.10
2023-03-20T02:58:53.172Z,9.10
2023-03-20T03:01:33.812Z,9.09
2023-03-20T03:04:10.717Z,9.10
2023-03-20T03:06:46.745Z,9.10
2023-03-20T03:09:23.186Z,9.12
2023-03-20T03:12:01.115Z,9.14
2023-03-20T03:14:39.637Z,9.15
2023-03-20T03:17:12.927Z,9.16
2023-03-20T03:19:49.746Z,9.15
2023-03-20T03:22:21.821Z,9.17
2023-03-20T03:24:54.213Z,9.15
2023-03-20T03:27:30.833Z,9.17
2023-03-20T03:30:07.415Z,9.17
2023-03-20T03:32:49.284Z,9.18
2023-03-20T03:35:25.236Z,9.19
2023-03-20T03:38:03.139Z,9.21
2023-03-20T03:40:44.402Z,9.21
2023-03-20T03:43:26.308Z,9.21
2023-03-20T03:46:02.769Z,9.22
2023-03-20T03:48:40.598Z,9.22
2023-03-20T03:51:16.352Z,9.22
2023-03-20T03:53:54.630Z,9.21
2023-03-20T03:56:30.569Z,9.19
2023-03-20T03:59:10.139Z,9.19
2023-03-20T04:01:44.552Z,9.19
2023-03-20T04:04:20.422Z,9.18
2023-03-20T04:06:50.742Z,9.19
2023-03-20T04:09:21.347Z,9.17
2023-03-20T04:11:54.274Z,9.16
2023-03-20T04:14:24.713Z,9.18
2023-03-20T04:16:54.718Z,9.20
2023-03-20T04:19:24.734Z,9.20
2023-03-20T04:21:55.302Z,9.20
2023-03-20T04:24:23.687Z,9.20
2023-03-20T04:26:53.605Z,9.22
2023-03-20T04:29:24.449Z,9.22
2023-03-20T04:31:54.535Z,9.22
2023-03-20T04:34:25.509Z,9.21
2023-03-20T04:36:54.885Z,9.22
2023-03-20T04:39:26.552Z,9.21
2023-03-20T04:41:56.373Z,9.22
2023-03-20T04:44:28.287Z,9.25
2023-03-20T04:46:57.881Z,9.25
2023-03-20T04:49:27.571Z,9.26
2023-03-20T04:51:56.958Z,9.27
2023-03-20T04:54:27.466Z,9.28
2023-03-20T04:56:57.362Z,9.27
2023-03-20T04:59:30.135Z,9.28
2023-03-20T05:01:59.074Z,9.28
2023-03-20T05:04:29.548Z,9.29
2023-03-20T05:06:59.016Z,9.29
2023-03-20T05:09:28.695Z,9.28
2023-03-20T05:11:59.165Z,9.28
2023-03-20T05:14:30.856Z,9.28
2023-03-20T05:17:02.057Z,9.28
2023-03-20T05:19:31.544Z,9.29
2023-03-20T05:22:01.266Z,9.30
2023-03-20T05:24:31.422Z,9.32
2023-03-20T05:27:01.384Z,9.31
2023-03-20T05:29:32.802Z,9.32
2023-03-20T05:32:01.877Z,9.32
2023-03-20T05:34:32.183Z,9.32
2023-03-20T05:37:01.585Z,9.33
2023-03-20T05:39:32.204Z,9.33
2023-03-20T05:42:04.066Z,9.34
2023-03-20T05:44:35.483Z,9.35
2023-03-20T05:47:05.211Z,9.36
2023-03-20T05:49:34.839Z,9.37
2023-03-20T05:52:05.157Z,9.38
2023-03-20T05:54:36.074Z,9.38
2023-03-20T05:57:05.308Z,9.40
2023-03-20T05:59:36.663Z,9.40
2023-03-20T06:02:05.448Z,9.41
2023-03-20T06:04:35.787Z,9.42
2023-03-20T06:07:07.227Z,9.43
2023-03-20T06:09:37.284Z,9.44
2023-03-20T06:12:09.392Z,9.44
2023-03-20T06:14:40.431Z,9.44
2023-03-20T06:17:09.510Z,9.44
2023-03-20T06:19:39.547Z,9.44
2023-03-20T06:22:08.936Z,9.44
2023-03-20T06:24:38.797Z,9.45
2023-03-20T06:27:08.994Z,9.44
2023-03-20T06:29:40.395Z,9.45
2023-03-20T06:32:11.634Z,9.45
2023-03-20T06:34:41.982Z,9.46
2023-03-20T06:37:12.447Z,9.47
2023-03-20T06:39:43.755Z,9.47
2023-03-20T06:42:16.115Z,9.48
2023-03-20T06:44:48.547Z,9.50
2023-03-20T06:47:20.578Z,9.50
2023-03-20T06:49:51.435Z,9.52
2023-03-20T06:52:23.520Z,9.54
2023-03-20T06:54:53.607Z,9.56
2023-03-20T06:57:24.558Z,9.58
2023-03-20T06:59:56.850Z,9.63
2023-03-20T07:02:26.490Z,9.65
2023-03-20T07:04:56.828Z,9.64
2023-03-20T07:07:27.781Z,9.64
2023-03-20T07:09:58.392Z,9.70
2023-03-20T07:12:29.797Z,9.75
2023-03-20T07:15:01.477Z,9.78
2023-03-20T07:17:32.728Z,9.78
2023-03-20T07:20:03.046Z,9.77
2023-03-20T07:22:33.507Z,9.78
2023-03-20T07:25:03.215Z,9.81
2023-03-20T07:27:32.113Z,9.82
2023-03-20T07:30:03.367Z,9.84
2023-03-20T07:32:33.370Z,9.83
2023-03-20T07:35:03.450Z,9.83
2023-03-20T07:37:33.882Z,9.83
2023-03-20T07:40:04.317Z,9.82
2023-03-20T07:42:34.514Z,9.83
2023-03-20T07:45:08.544Z,9.83
2023-03-20T07:47:38.473Z,9.91
2023-03-20T07:50:08.502Z,9.96
2023-03-20T07:52:38.757Z,9.97
2023-03-20T07:55:08.568Z,10.01
2023-03-20T07:57:39.162Z,10.06
2023-03-20T08:00:12.576Z,10.09
2023-03-20T08:02:43.016Z,10.10
2023-03-20T08:05:12.311Z,10.15
2023-03-20T08:07:42.052Z,10.13
2023-03-20T08:10:12.944Z,10.13
2023-03-20T08:12:43.476Z,10.13
2023-03-20T08:15:14.027Z,10.14
2023-03-20T08:17:45.708Z,10.18
2023-03-20T08:20:18.176Z,10.22
2023-03-20T08:22:50.197Z,10.24
2023-03-20T08:25:21.351Z,10.23
2023-03-20T08:27:51.425Z,10.27
2023-03-20T08:30:23.627Z,10.28
2023-03-20T08:32:53.617Z,10.29
2023-03-20T08:35:33.033Z,10.30
2023-03-20T08:38:03.949Z,10.38
2023-03-20T08:40:34.374Z,10.41
2023-03-20T08:43:03.844Z,10.37
2023-03-20T08:45:34.922Z,10.40
2023-03-20T08:48:06.058Z,10.39
2023-03-20T08:50:35.637Z,10.42
2023-03-20T08:53:05.977Z,10.48
2023-03-20T08:55:35.659Z,10.44
2023-03-20T08:58:05.837Z,10.50
2023-03-20T09:00:38.017Z,10.50
2023-03-20T09:03:08.759Z,10.52
2023-03-20T09:05:39.771Z,10.54
2023-03-20T09:08:10.005Z,10.54
2023-03-20T09:10:39.085Z,10.62
2023-03-20T09:13:25.684Z,10.62
2023-03-20T09:15:58.549Z,10.64
2023-03-20T09:18:27.864Z,10.66
2023-03-20T09:20:57.616Z,10.71
2023-03-20T09:23:26.750Z,10.78
2023-03-20T09:25:55.402Z,10.71
2023-03-20T09:28:26.121Z,10.79
2023-03-20T09:31:00.911Z,10.81
2023-03-20T09:33:30.481Z,10.86
2023-03-20T09:36:00.050Z,10.84
2023-03-20T09:38:29.306Z,10.77
2023-03-20T09:41:00.752Z,10.75
2023-03-20T09:43:52.594Z,10.69
2023-03-20T09:46:49.636Z,10.67
2023-03-20T09:49:40.989Z,10.68
2023-03-20T09:52:26.150Z,10.66
2023-03-20T09:55:00.427Z,10.67
2023-03-20T09:57:37.663Z,10.65
2023-03-20T10:00:14.292Z,10.63
2023-03-20T10:02:54.818Z,10.72
2023-03-20T10:05:29.202Z,10.77
2023-03-20T10:08:04.029Z,10.81
2023-03-20T10:10:49.159Z,10.85
2023-03-20T10:14:00.189Z,10.87
2023-03-20T10:16:48.489Z,10.87
2023-03-20T10:19:28.968Z,10.90
2023-03-20T10:22:03.733Z,10.96
2023-03-20T10:24:41.227Z,10.97
2023-03-20T10:27:25.070Z,11.00
2023-03-20T10:30:19.700Z,10.99
2023-03-20T10:32:59.523Z,11.04
2023-03-20T10:35:40.525Z,11.10
2023-03-20T10:38:28.660Z,11.18
2023-03-20T10:41:00.404Z,11.21
2023-03-20T10:43:38.235Z,11.26
2023-03-20T10:46:16.868Z,11.29
2023-03-20T10:48:52.627Z,11.25
2023-03-20T10:51:32.048Z,11.34
2023-03-20T10:54:07.662Z,11.34
2023-03-20T10:56:43.250Z,11.40
2023-03-20T10:59:23.968Z,11.44
2023-03-20T11:01:54.045Z,11.45
2023-03-20T11:04:23.988Z,11.49
2023-03-20T11:07:03.482Z,11.49
2023-03-20T11:09:33.925Z,11.49
2023-03-20T11:12:05.489Z,11.37
2023-03-20T11:14:40.695Z,11.38
2023-03-20T11:17:12.636Z,11.43
2023-03-20T11:19:43.093Z,11.39
2023-03-20T11:22:28.202Z,11.43
2023-03-20T11:25:03.181Z,11.48
2023-03-20T11:27:35.419Z,11.53
2023-03-20T11:30:10.531Z,11.55
2023-03-20T11:32:47.584Z,11.54
2023-03-20T11:35:31.597Z,11.56
2023-03-20T11:38:16.023Z,11.60
2023-03-20T11:40:48.047Z,11.71
2023-03-20T11:43:22.531Z,11.67
2023-03-20T11:45:57.687Z,11.63
2023-03-20T11:48:39.209Z,11.64
2023-03-20T11:51:13.088Z,11.69
2023-03-20T11:53:59.669Z,11.65
2023-03-20T11:56:32.472Z,11.59
2023-03-20T11:59:05.752Z,11.61
2023-03-20T12:01:47.387Z,11.71
2023-03-20T12:04:21.844Z,11.60
2023-03-20T12:06:58.966Z,11.67
2023-03-20T12:09:59.642Z,11.65
2023-03-20T12:12:42.219Z,11.74
2023-03-20T12:15:23.863Z,11.78
2023-03-20T12:17:59.202Z,11.80
2023-03-20T12:20:37.891Z,11.69
2023-03-20T12:23:20.011Z,11.74
2023-03-20T12:25:58.807Z,11.78
2023-03-20T12:28:38.013Z,11.78
2023-03-20T12:31:25.196Z,11.88
2023-03-20T12:34:02.365Z,11.78
2023-03-20T12:36:36.625Z,11.87
2023-03-20T12:39:12.078Z,11.85
2023-03-20T12:42:05.311Z,11.90
2023-03-20T12:44:48.446Z,11.85
2023-03-20T12:47:54.681Z,11.81
2023-03-20T12:50:34.166Z,11.79
2023-03-20T12:53:38.175Z,11.77
2023-03-20T12:56:28.126Z,11.76
2023-03-20T12:59:11.878Z,11.72
2023-03-20T13:01:53.822Z,11.73
2023-03-20T13:04:45.467Z,11.68
2023-03-20T13:07:22.032Z,11.68
2023-03-20T13:10:08.951Z,11.66
2023-03-20T13:12:55.341Z,11.57
2023-03-20T13:16:11.654Z,11.65
2023-03-20T13:19:00.581Z,11.60
2023-03-20T13:21:39.359Z,11.69
2023-03-20T13:24:28.481Z,11.71
2023-03-20T13:27:13.555Z,11.74
2023-03-20T13:29:54.886Z,11.68
2023-03-20T13:32:40.200Z,11.72
2023-03-20T13:35:44.145Z,11.69
2023-03-20T13:38:22.296Z,11.68
2023-03-20T13:41:00.803Z,11.65
2023-03-20T13:43:35.713Z,11.66
2023-03-20T13:46:11.760Z,11.60
2023-03-20T13:48:45.186Z,11.60
2023-03-20T13:51:27.715Z,11.65
2023-03-20T13:54:17.780Z,11.66
2023-03-20T13:56:57.464Z,11.63
2023-03-20T13:59:52.373Z,11.63
2023-03-20T14:03:07.788Z,11.71
2023-03-20T14:05:42.656Z,11.75
2023-03-20T14:08:39.381Z,11.67
2023-03-20T14:11:32.519Z,11.60
2023-03-20T14:14:14.038Z,11.55
2023-03-20T14:16:43.948Z,11.53
2023-03-20T14:19:22.299Z,11.54
2023-03-20T14:21:56.853Z,11.63
2023-03-20T14:24:30.281Z,11.59
2023-03-20T14:27:02.012Z,11.57
2023-03-20T14:29:39.038Z,11.56
2023-03-20T14:32:53.390Z,11.52
2023-03-20T14:35:28.532Z,11.49
2023-03-20T14:38:28.364Z,11.44
2023-03-20T14:41:12.860Z,11.46
2023-03-20T14:44:24.380Z,11.34
2023-03-20T14:47:01.819Z,11.31
2023-03-20T14:49:56.553Z,11.27
2023-03-20T14:52:47.995Z,11.32
2023-03-20T14:55:34.252Z,11.27
2023-03-20T14:58:54.507Z,11.30
2023-03-20T15:01:42.093Z,11.28
2023-03-20T15:04:25.135Z,11.27
2023-03-20T15:07:00.307Z,11.20
2023-03-20T15:09:33.222Z,11.28
2023-03-20T15:12:06.206Z,11.32
2023-03-20T15:14:46.100Z,11.25
2023-03-20T15:17:22.889Z,11.20
2023-03-20T15:19:52.861Z,11.20
2023-03-20T15:22:23.078Z,11.22
2023-03-20T15:24:57.563Z,11.19
2023-03-20T15:27:33.092Z,11.17
2023-03-20T15:30:05.036Z,11.14
2023-03-20T15:32:38.200Z,11.19
2023-03-20T15:35:12.115Z,11.16
2023-03-20T15:37:42.728Z,11.22
2023-03-20T15:40:24.642Z,11.25
2023-03-20T15:43:00.648Z,11.22
2023-03-20T15:45:35.859Z,11.25
2023-03-20T15:48:14.695Z,11.20
2023-03-20T15:50:49.193Z,11.17
2023-03-20T15:53:22.456Z,11.19
2023-03-20T15:56:14.925Z,11.13
2023-03-20T15:58:52.819Z,11.10
2023-03-20T16:01:25.813Z,11.07
2023-03-20T16:04:01.922Z,11.07
2023-03-20T16:06:32.419Z,11.12
2023-03-20T16:09:06.901Z,11.18
2023-03-20T16:11:41.106Z,11.20
2023-03-20T16:14:17.162Z,11.09
2023-03-20T16:16:51.195Z,11.08
2023-03-20T16:19:22.094Z,11.09
2023-03-20T16:21:55.734Z,11.10
2023-03-20T16:24:32.746Z,11.13
2023-03-20T16:27:03.157Z,11.11
2023-03-20T16:29:33.684Z,11.15
2023-03-20T16:32:08.821Z,11.14
2023-03-20T16:34:40.060Z,11.11
2023-03-20T16:37:25.347Z,11.13
2023-03-20T16:40:17.547Z,11.13
2023-03-20T16:42:48.536Z,11.15
2023-03-20T16:45:27.734Z,11.16
2023-03-20T16:48:26.763Z,11.16
2023-03-20T16:51:10.237Z,11.11
2023-03-20T16:53:46.389Z,11.11
2023-03-20T16:56:19.109Z,11.12
2023-03-20T16:58:48.729Z,11.09
2023-03-20T17:01:23.546Z,11.08
2023-03-20T17:03:57.107Z,11.05
2023-03-20T17:06:55.123Z,11.07
2023-03-20T17:09:28.226Z,11.06
2023-03-20T17:12:07.719Z,11.08
2023-03-20T17:14:37.996Z,11.08
2023-03-20T17:17:14.459Z,11.09
2023-03-20T17:19:44.241Z,11.13
2023-03-20T17:22:18.628Z,11.13
2023-03-20T17:24:47.500Z,11.15
2023-03-20T17:27:18.668Z,11.07
2023-03-20T17:29:49.392Z,11.00
2023-03-20T17:32:24.478Z,11.01
2023-03-20T17:34:53.626Z,11.04
2023-03-20T17:37:29.821Z,11.06
2023-03-20T17:40:01.049Z,11.07
2023-03-20T17:42:32.207Z,11.07
2023-03-20T17:45:04.131Z,11.05
2023-03-20T17:47:34.395Z,11.06
2023-03-20T17:50:04.692Z,11.02
2023-03-20T17:52:34.814Z,11.02
2023-03-20T17:55:03.694Z,11.02
2023-03-20T17:57:37.439Z,11.02
2023-03-20T18:00:09.722Z,11.02
2023-03-20T18:02:41.222Z,11.02
2023-03-20T18:05:12.261Z,11.01
2023-03-20T18:07:42.381Z,11.00
2023-03-20T18:10:29.205Z,10.96
2023-03-20T18:12:58.800Z,10.93
2023-03-20T18:15:28.561Z,10.93
2023-03-20T18:17:59.679Z,10.94
2023-03-20T18:20:32.118Z,10.93
2023-03-20T18:23:02.693Z,10.93
2023-03-20T18:25:31.451Z,10.92
2023-03-20T18:28:03.332Z,10.94
2023-03-20T18:30:36.845Z,10.89
2023-03-20T18:33:09.293Z,10.87
2023-03-20T18:35:39.089Z,10.85
2023-03-20T18:38:12.028Z,10.82
2023-03-20T18:40:43.228Z,10.79
2023-03-20T18:43:12.120Z,10.74
2023-03-20T18:45:41.858Z,10.76
2023-03-20T18:48:16.791Z,10.73
2023-03-20T18:50:50.913Z,10.74
2023-03-20T18:53:20.134Z,10.72
2023-03-20T18:55:48.994Z,10.70
2023-03-20T18:58:23.893Z,10.68
2023-03-20T19:00:55.940Z,10.67
2023-03-20T19:03:28.648Z,10.64
2023-03-20T19:06:00.144Z,10.63
2023-03-20T19:08:30.212Z,10.62
2023-03-20T19:10:59.194Z,10.59
2023-03-20T19:13:27.646Z,10.57
2023-03-20T19:15:58.334Z,10.56
2023-03-20T19:18:29.440Z,10.53
2023-03-20T19:20:59.822Z,10.51
2023-03-20T19:23:30.002Z,10.51
2023-03-20T19:25:59.486Z,10.52
2023-03-20T19:28:40.735Z,10.51
2023-03-20T19:31:11.596Z,10.48
2023-03-20T19:33:43.121Z,10.48
2023-03-20T19:36:28.745Z,10.45
2023-03-20T19:39:00.360Z,10.45
2023-03-20T19:41:32.259Z,10.45
2023-03-20T19:44:01.820Z,10.45
2023-03-20T19:46:40.658Z,10.43
2023-03-20T19:49:20.171Z,10.43
2023-03-20T19:51:50.262Z,10.43
2023-03-20T19:54:20.291Z,10.39
2023-03-20T19:56:48.692Z,10.37
2023-03-20T19:59:17.604Z,10.35
2023-03-20T20:01:47.172Z,10.33
2023-03-20T20:04:18.465Z,10.31
2023-03-20T20:06:47.778Z,10.30
2023-03-20T20:09:18.120Z,10.30
2023-03-20T20:11:48.189Z,10.30
2023-03-20T20:14:23.653Z,10.29
2023-03-20T20:16:54.565Z,10.30
2023-03-20T20:19:24.807Z,10.30
2023-03-20T20:24:43.163Z,10.24
2023-03-20T20:27:17.554Z,10.22
2023-03-20T20:29:50.188Z,10.21
2023-03-20T20:32:21.764Z,10.17
2023-03-20T20:40:33.245Z,10.12
2023-03-20T20:43:03.341Z,10.11
2023-03-20T20:45:38.972Z,10.12
2023-03-20T20:48:10.397Z,10.10
2023-03-20T20:50:45.032Z,10.09
2023-03-20T20:53:14.435Z,10.08
2023-03-20T20:55:43.996Z,10.06
2023-03-20T20:58:12.450Z,10.08
2023-03-20T21:00:51.703Z,10.07
2023-03-20T21:03:22.563Z,10.07
2023-03-20T21:05:54.045Z,10.04
2023-03-20T21:08:23.283Z,10.04
2023-03-20T21:10:52.344Z,10.01
2023-03-20T21:13:21.869Z,10.01
2023-03-20T21:15:59.895Z,10.01
2023-03-20T21:18:29.187Z,10.00
2023-03-20T21:21:08.608Z,10.01
2023-03-20T21:23:38.362Z,9.97
2023-03-20T21:26:08.600Z,9.95
2023-03-20T21:28:38.776Z,9.93
2023-03-20T21:31:24.502Z,9.94
2023-03-20T21:33:56.727Z,9.94
2023-03-20T21:36:27.969Z,9.95
2023-03-20T21:39:13.639Z,9.94
2023-03-20T21:41:43.576Z,9.93
2023-03-20T21:44:17.682Z,9.91
2023-03-20T21:53:12.058Z,9.89
2023-03-20T21:56:17.074Z,9.86
2023-03-20T22:01:45.085Z,9.86
2023-03-20T22:04:44.895Z,9.84
2023-03-20T22:10:08.562Z,9.81
2023-03-20T22:15:54.503Z,9.74
2023-03-20T22:18:50.594Z,9.74
2023-03-20T22:21:39.077Z,9.69
2023-03-20T22:24:45.185Z,9.67
2023-03-20T22:27:26.858Z,9.68
2023-03-20T22:36:08.136Z,9.63
2023-03-20T22:44:35.367Z,9.54
2023-03-20T22:46:44.793Z,9.53
2023-03-20T22:49:15.340Z,9.52
2023-03-20T22:52:03.245Z,9.50
2023-03-20T22:54:34.740Z,9.51
2023-03-20T22:57:04.162Z,9.49
2023-03-20T22:59:35.704Z,9.48
2023-03-20T23:02:05.201Z,9.48
2023-03-20T23:04:34.351Z,9.46
2023-03-20T23:07:03.746Z,9.42
2023-03-20T23:09:32.636Z,9.42
2023-03-20T23:12:02.642Z,9.41
2023-03-20T23:14:44.749Z,9.38
2023-03-20T23:17:18.202Z,9.38
2023-03-20T23:19:54.099Z,9.38
2023-03-20T23:22:29.234Z,9.40
2023-03-20T23:25:02.851Z,9.38
2023-03-20T23:27:38.950Z,9.38
2023-03-20T23:30:09.628Z,9.38
2023-03-20T23:32:42.335Z,9.39
2023-03-20T23:35:13.700Z,9.39
2023-03-20T23:37:43.500Z,9.38
2023-03-20T23:40:16.586Z,9.41
2023-03-20T23:42:46.115Z,9.43
2023-03-20T23:45:20.378Z,9.42
2023-03-20T23:47:51.435Z,9.45
2023-03-20T23:50:42.670Z,9.46
2023-03-20T23:53:20.373Z,9.47
2023-03-20T23:55:52.400Z,9.47
2023-03-20T23:58:23.116Z,9.46
